Korneuburg, Austria
Current Conditions -  °F | °C
As of 4:50 PM on Friday 24 Oct 2014 (Local Time) from LOXT Reporting Station
Broken Clouds Broken Clouds  
Wind Chill: 52°   Ceiling: 3400
Heat Index: 52°   Visibility: 16mi
Dew Point: 41°   Wind: 3mph
Humidity: 67%   Direction: NA
Pressure: 30.12"   Gusts: NA
Location:  48.35°N, 16.35°E
Report Text: LOXT 241450Z VRB03KT 25KM BKN034SC 11/05 Q1020 RMK BKN
Loading
Personal Weather Stations






























Interactive Weather Map
Tropical Storm Tracking
New forecast layout! Learn more

10-Day Weather Forecast

Advertisements
Track Severe Weather on mobile